createdAt,value
2022-12-15T00:02:18.316Z,13.70
2022-12-15T00:05:03.836Z,13.75
2022-12-15T00:07:49.121Z,14.18
2022-12-15T00:10:34.833Z,12.05
2022-12-15T00:13:20.258Z,14.57
2022-12-15T00:16:06.226Z,12.93
2022-12-15T00:18:51.767Z,14.30
2022-12-15T00:21:37.211Z,14.32
2022-12-15T00:24:22.464Z,12.70
2022-12-15T00:27:07.714Z,12.50
2022-12-15T00:29:53.036Z,12.80
2022-12-15T00:32:38.544Z,13.20
2022-12-15T00:35:24.460Z,12.63
2022-12-15T00:38:10.358Z,13.13
2022-12-15T00:40:37.394Z,13.57
2022-12-15T00:43:04.309Z,15.32
2022-12-15T00:45:49.832Z,13.90
2022-12-15T00:48:16.809Z,13.15
2022-12-15T00:50:52.554Z,15.18
2022-12-15T00:53:42.102Z,13.32
2022-12-15T00:56:27.979Z,13.43
2022-12-15T00:59:13.517Z,15.15
2022-12-15T01:01:59.063Z,13.57
2022-12-15T01:04:44.911Z,12.02
2022-12-15T01:07:30.590Z,13.88
2022-12-15T01:10:16.277Z,13.57
2022-12-15T01:13:01.778Z,16.13
2022-12-15T01:15:47.282Z,14.15
2022-12-15T01:18:32.800Z,16.33
2022-12-15T01:21:01.787Z,16.60
2022-12-15T01:23:28.961Z,17.52
2022-12-15T01:25:56.330Z,16.02
2022-12-15T01:28:23.691Z,15.88
2022-12-15T01:30:50.680Z,14.85
2022-12-15T01:33:17.864Z,14.23
2022-12-15T01:35:44.988Z,15.88
2022-12-15T01:38:11.950Z,14.82
2022-12-15T01:40:50.344Z,16.65
2022-12-15T01:43:19.744Z,17.77
2022-12-15T01:45:57.203Z,15.02
2022-12-15T01:48:42.628Z,15.02
2022-12-15T01:51:20.523Z,15.05
2022-12-15T01:54:16.536Z,15.90
2022-12-15T01:56:48.358Z,16.42
2022-12-15T01:59:19.919Z,15.68
2022-12-15T02:01:49.727Z,16.73
2022-12-15T02:04:21.014Z,15.57
2022-12-15T02:06:48.061Z,16.92
2022-12-15T02:09:15.656Z,13.65
2022-12-15T02:11:51.629Z,15.50
2022-12-15T02:14:32.511Z,16.13
2022-12-15T02:17:09.927Z,14.57
2022-12-15T02:20:01.736Z,14.70
2022-12-15T02:22:47.669Z,15.18
2022-12-15T02:25:43.853Z,14.40
2022-12-15T02:28:17.222Z,15.43
2022-12-15T02:31:10.116Z,15.32
2022-12-15T02:33:40.985Z,15.82
2022-12-15T02:36:18.749Z,14.32
2022-12-15T02:38:45.821Z,17.38
2022-12-15T02:41:37.257Z,16.75
2022-12-15T02:44:35.667Z,16.67
2022-12-15T02:47:24.577Z,18.48
2022-12-15T02:50:11.805Z,17.10
2022-12-15T02:53:12.115Z,16.65
2022-12-15T02:56:30.223Z,20.45
2022-12-15T02:59:00.074Z,19.35
2022-12-15T03:01:29.856Z,20.98
2022-12-15T03:03:57.085Z,19.45
2022-12-15T03:06:24.969Z,17.23
2022-12-15T03:08:51.893Z,18.77
2022-12-15T03:11:18.920Z,17.17
2022-12-15T03:13:45.939Z,17.95
2022-12-15T03:16:13.005Z,17.95
2022-12-15T03:18:40.169Z,15.85
2022-12-15T03:21:07.163Z,18.45
2022-12-15T03:23:34.485Z,17.27
2022-12-15T03:26:01.568Z,16.13
2022-12-15T03:28:28.980Z,14.30
2022-12-15T03:30:56.620Z,16.02
2022-12-15T03:33:23.521Z,14.80
2022-12-15T03:35:51.373Z,17.42
2022-12-15T03:38:18.793Z,16.80
2022-12-15T03:40:45.726Z,16.20
2022-12-15T03:43:12.722Z,16.38
2022-12-15T03:45:39.688Z,15.18
2022-12-15T03:48:06.741Z,16.05
2022-12-15T03:50:33.712Z,16.08
2022-12-15T03:53:02.021Z,14.85
2022-12-15T03:55:29.168Z,14.85
2022-12-15T03:57:56.356Z,15.63
2022-12-15T04:00:24.765Z,16.90
2022-12-15T04:02:52.043Z,17.15
2022-12-15T04:05:29.572Z,16.88
2022-12-15T04:07:57.184Z,16.55
2022-12-15T04:10:28.650Z,19.50
2022-12-15T04:13:01.395Z,16.70
2022-12-15T04:15:28.601Z,16.77
2022-12-15T04:17:55.583Z,17.48
2022-12-15T04:20:22.837Z,16.13
2022-12-15T04:22:50.458Z,21.73
2022-12-15T04:25:37.850Z,18.15
2022-12-15T04:28:23.757Z,21.17
2022-12-15T04:31:17.426Z,16.63
2022-12-15T04:34:05.094Z,19.13
2022-12-15T04:36:50.435Z,18.77
2022-12-15T04:39:35.792Z,19.05
2022-12-15T04:42:21.685Z,18.52
2022-12-15T04:45:07.094Z,20.88
2022-12-15T04:47:52.694Z,17.63
2022-12-15T04:50:38.143Z,16.98
2022-12-15T04:53:28.291Z,17.08
2022-12-15T04:56:18.410Z,21.35
2022-12-15T04:59:04.878Z,16.42
2022-12-15T05:01:51.102Z,16.35
2022-12-15T05:04:36.701Z,20.33
2022-12-15T05:07:22.275Z,20.70
2022-12-15T05:10:14.409Z,19.10
2022-12-15T05:13:00.939Z,16.15
2022-12-15T05:15:46.529Z,19.23
2022-12-15T05:18:31.909Z,19.75
2022-12-15T05:21:17.778Z,17.08
2022-12-15T05:24:03.281Z,19.33
2022-12-15T05:26:52.697Z,16.75
2022-12-15T05:29:39.798Z,15.30
2022-12-15T05:32:07.884Z,17.63
2022-12-15T05:34:35.781Z,18.98
2022-12-15T05:37:03.553Z,17.83
2022-12-15T05:39:30.608Z,19.90
2022-12-15T05:41:57.712Z,20.02
2022-12-15T05:44:25.475Z,20.98
2022-12-15T05:46:52.610Z,17.65
2022-12-15T05:49:19.613Z,19.05
2022-12-15T05:51:47.521Z,19.00
2022-12-15T05:54:18.600Z,19.45
2022-12-15T05:56:45.691Z,19.08
2022-12-15T05:59:12.756Z,18.45
2022-12-15T06:01:40.115Z,18.23
2022-12-15T06:04:07.646Z,18.95
2022-12-15T06:06:34.691Z,18.80
2022-12-15T06:09:01.667Z,17.90
2022-12-15T06:11:28.672Z,19.08
2022-12-15T06:13:55.947Z,17.75
2022-12-15T06:16:23.522Z,17.92
2022-12-15T06:18:53.147Z,19.13
2022-12-15T06:21:23.879Z,18.83
2022-12-15T06:23:50.844Z,18.17
2022-12-15T06:26:25.626Z,19.45
2022-12-15T06:28:52.669Z,16.88
2022-12-15T06:31:22.901Z,16.92
2022-12-15T06:33:53.515Z,18.75
2022-12-15T06:36:26.579Z,21.77
2022-12-15T06:38:53.732Z,19.80
2022-12-15T06:41:21.327Z,20.33
2022-12-15T06:43:52.243Z,18.73
2022-12-15T06:46:19.627Z,18.70
2022-12-15T06:48:46.934Z,20.83
2022-12-15T06:51:17.237Z,17.73
2022-12-15T06:53:52.830Z,17.15
2022-12-15T06:56:28.853Z,17.40
2022-12-15T06:58:59.525Z,18.90
2022-12-15T07:01:26.615Z,19.98
2022-12-15T07:03:53.986Z,19.88
2022-12-15T07:06:21.240Z,19.20
2022-12-15T07:08:56.737Z,18.92
2022-12-15T07:11:23.978Z,22.85
2022-12-15T07:13:51.632Z,19.13
2022-12-15T07:16:18.804Z,21.02
2022-12-15T07:18:45.876Z,22.52
2022-12-15T07:21:12.865Z,23.25
2022-12-15T07:23:54.115Z,24.60
2022-12-15T07:26:22.179Z,25.10
2022-12-15T07:28:49.124Z,26.83
2022-12-15T07:31:16.243Z,27.45
2022-12-15T07:33:43.247Z,24.65
2022-12-15T07:36:11.184Z,23.08
2022-12-15T07:38:38.177Z,25.08
2022-12-15T07:41:06.392Z,22.42
2022-12-15T07:43:33.918Z,20.80
2022-12-15T07:46:01.518Z,24.48
2022-12-15T07:48:29.377Z,22.50
2022-12-15T07:51:07.482Z,21.00
2022-12-15T07:53:37.174Z,24.00
2022-12-15T07:56:08.014Z,21.05
2022-12-15T07:58:36.370Z,19.88
2022-12-15T08:01:07.928Z,20.50
2022-12-15T08:03:35.994Z,18.25
2022-12-15T08:06:05.564Z,21.13
2022-12-15T08:08:33.545Z,19.73
2022-12-15T08:11:05.005Z,18.02
2022-12-15T08:14:01.452Z,19.40
2022-12-15T08:16:20.228Z,16.65
2022-12-15T08:18:47.352Z,19.20
2022-12-15T08:21:14.807Z,17.80
2022-12-15T08:23:41.851Z,19.73
2022-12-15T08:26:13.841Z,20.27
2022-12-15T08:28:40.986Z,21.95
2022-12-15T08:31:09.766Z,20.63
2022-12-15T08:33:36.876Z,18.27
2022-12-15T08:36:08.565Z,20.13
2022-12-15T08:38:36.141Z,18.95
2022-12-15T08:41:13.765Z,18.30
2022-12-15T08:43:47.659Z,18.35
2022-12-15T08:46:27.418Z,17.98
2022-12-15T08:48:54.663Z,18.35
2022-12-15T08:51:21.942Z,19.40
2022-12-15T08:53:49.490Z,17.73
2022-12-15T08:56:18.668Z,19.58
2022-12-15T08:58:46.458Z,19.60
2022-12-15T09:01:22.816Z,19.05
2022-12-15T09:03:51.477Z,18.13
2022-12-15T09:06:22.833Z,18.10
2022-12-15T09:08:50.381Z,19.42
2022-12-15T09:11:17.878Z,16.80
2022-12-15T09:13:45.108Z,19.30
2022-12-15T09:16:13.916Z,16.75
2022-12-15T09:18:48.685Z,16.75
2022-12-15T09:21:15.810Z,16.60
2022-12-15T09:23:42.825Z,17.75
2022-12-15T09:26:11.534Z,20.60
2022-12-15T09:28:38.765Z,18.42
2022-12-15T09:31:17.089Z,19.98
2022-12-15T09:33:44.431Z,18.45
2022-12-15T09:36:11.533Z,18.35
2022-12-15T09:38:38.537Z,20.15
2022-12-15T09:41:14.080Z,23.75
2022-12-15T09:44:02.314Z,20.92
2022-12-15T09:47:05.943Z,21.80
2022-12-15T09:49:38.649Z,21.17
2022-12-15T09:52:11.078Z,22.95
2022-12-15T09:54:38.566Z,21.45
2022-12-15T09:57:08.964Z,21.80
2022-12-15T09:59:35.952Z,21.02
2022-12-15T10:02:38.050Z,21.85
2022-12-15T10:05:29.814Z,21.83
2022-12-15T10:08:07.970Z,22.33
2022-12-15T10:11:00.165Z,22.00
2022-12-15T10:13:56.027Z,26.90
2022-12-15T10:16:44.108Z,20.63
2022-12-15T10:19:41.154Z,26.48
2022-12-15T10:22:50.661Z,23.55
2022-12-15T10:26:01.457Z,22.95
2022-12-15T10:29:32.283Z,21.83
2022-12-15T10:33:04.245Z,23.77
2022-12-15T10:35:41.999Z,26.45
2022-12-15T10:38:38.010Z,26.10
2022-12-15T10:41:21.684Z,25.23
2022-12-15T10:44:05.842Z,27.88
2022-12-15T10:46:56.924Z,30.02
2022-12-15T10:50:45.255Z,31.83
2022-12-15T10:57:27.719Z,25.65
2022-12-15T11:00:30.288Z,26.30
2022-12-15T11:03:04.188Z,24.23
2022-12-15T11:05:43.954Z,25.60
2022-12-15T11:08:33.897Z,26.38
2022-12-15T11:14:51.241Z,22.65
2022-12-15T11:17:54.187Z,24.50
2022-12-15T11:21:02.658Z,26.23
2022-12-15T11:25:34.066Z,22.42
2022-12-15T11:44:07.711Z,22.10
2022-12-15T11:51:39.443Z,22.13
2022-12-15T11:55:12.029Z,21.35
2022-12-15T11:58:16.287Z,22.40
2022-12-15T12:01:27.036Z,23.70
2022-12-15T12:08:06.385Z,26.90
2022-12-15T12:11:19.232Z,26.13
2022-12-15T12:14:11.666Z,21.85
2022-12-15T12:16:47.612Z,21.27
2022-12-15T12:19:30.401Z,23.30
2022-12-15T12:23:00.266Z,22.63
2022-12-15T12:29:19.539Z,22.95
2022-12-15T12:38:07.468Z,26.75
2022-12-15T12:41:25.011Z,27.73
2022-12-15T12:44:02.754Z,23.55
2022-12-15T12:47:02.125Z,23.88
2022-12-15T12:49:57.045Z,25.90
2022-12-15T12:53:21.083Z,26.25
2022-12-15T13:03:52.435Z,27.48
2022-12-15T13:15:42.349Z,27.77
2022-12-15T13:18:00.556Z,26.70
2022-12-15T13:26:38.106Z,26.73
2022-12-15T13:28:50.377Z,26.13
2022-12-15T13:32:02.345Z,25.38
2022-12-15T13:35:17.254Z,29.23
2022-12-15T13:38:28.577Z,24.10
2022-12-15T13:41:28.231Z,26.10
2022-12-15T13:44:05.830Z,26.23
2022-12-15T13:46:37.393Z,26.35
2022-12-15T13:49:30.025Z,24.48
2022-12-15T13:52:19.349Z,23.15
2022-12-15T13:55:12.059Z,26.38
2022-12-15T13:57:48.615Z,29.17
2022-12-15T14:00:28.850Z,29.88
2022-12-15T14:03:07.266Z,29.20
2022-12-15T14:05:35.727Z,26.13
2022-12-15T14:08:09.135Z,26.48
2022-12-15T14:10:55.924Z,29.77
2022-12-15T14:13:26.257Z,27.08
2022-12-15T14:16:23.397Z,28.20
2022-12-15T14:19:14.429Z,33.37
2022-12-15T14:22:25.139Z,28.77
2022-12-15T14:25:09.525Z,27.27
2022-12-15T14:27:42.797Z,29.05
2022-12-15T14:30:22.003Z,26.47
2022-12-15T14:32:52.792Z,26.45
2022-12-15T14:35:49.542Z,27.13
2022-12-15T14:38:36.347Z,25.40
2022-12-15T14:41:05.316Z,26.58
2022-12-15T14:44:36.632Z,27.75
2022-12-15T14:46:40.672Z,26.30
2022-12-15T14:49:11.891Z,28.58
2022-12-15T14:51:51.581Z,27.20
2022-12-15T14:54:39.764Z,28.17
2022-12-15T14:57:09.895Z,29.00
2022-12-15T14:59:40.892Z,27.52
2022-12-15T15:02:23.118Z,26.85
2022-12-15T15:03:10.164Z,23.70
2022-12-15T15:05:13.291Z,30.08
2022-12-15T15:07:42.055Z,33.45
2022-12-15T15:10:24.776Z,29.85
2022-12-15T15:12:56.779Z,27.40
2022-12-15T15:15:27.055Z,32.00
2022-12-15T15:17:58.384Z,30.75
2022-12-15T15:20:38.069Z,27.63
2022-12-15T15:23:21.035Z,26.83
2022-12-15T15:25:57.925Z,27.13
2022-12-15T15:28:30.658Z,28.58
2022-12-15T15:31:08.112Z,27.67
2022-12-15T15:33:45.498Z,27.27
2022-12-15T15:36:15.587Z,25.20
2022-12-15T15:39:20.474Z,26.52
2022-12-15T15:42:15.225Z,29.45
2022-12-15T15:44:43.477Z,28.95
2022-12-15T15:47:28.738Z,32.05
2022-12-15T15:49:58.419Z,30.23
2022-12-15T15:52:25.629Z,30.35
2022-12-15T15:54:52.991Z,30.00
2022-12-15T15:57:20.106Z,27.38
2022-12-15T15:59:47.342Z,24.45
2022-12-15T16:02:14.753Z,29.33
2022-12-15T16:04:42.552Z,25.13
2022-12-15T16:07:22.903Z,26.50
2022-12-15T16:09:50.330Z,22.13
2022-12-15T16:12:53.584Z,26.58
2022-12-15T16:15:23.233Z,22.35
2022-12-15T16:17:50.336Z,23.92
2022-12-15T16:20:18.353Z,22.92
2022-12-15T16:22:47.511Z,24.48
2022-12-15T16:25:50.836Z,24.42
2022-12-15T16:28:20.624Z,23.55
2022-12-15T16:30:47.884Z,23.02
2022-12-15T16:33:15.138Z,23.70
2022-12-15T16:35:42.455Z,24.90
2022-12-15T16:38:36.042Z,22.38
2022-12-15T16:41:07.501Z,22.92
2022-12-15T16:43:39.195Z,23.17
2022-12-15T16:46:07.534Z,22.85
2022-12-15T16:48:35.197Z,21.42
2022-12-15T16:51:02.837Z,21.75
2022-12-15T16:53:34.520Z,22.58
2022-12-15T16:56:03.463Z,23.55
2022-12-15T16:58:30.910Z,22.00
2022-12-15T17:01:01.338Z,25.98
2022-12-15T17:03:50.219Z,25.25
2022-12-15T17:06:28.009Z,27.95
2022-12-15T17:36:38.592Z,28.05
2022-12-15T17:42:12.734Z,27.75
2022-12-15T18:12:13.318Z,23.80
2022-12-15T18:14:45.719Z,24.77
2022-12-15T18:17:24.948Z,26.05
2022-12-15T18:20:16.968Z,27.10
2022-12-15T18:29:49.482Z,27.77
2022-12-15T18:34:43.462Z,28.48
2022-12-15T18:40:53.209Z,23.00
2022-12-15T18:43:34.160Z,23.98
2022-12-15T18:47:28.755Z,25.45
2022-12-15T18:54:05.135Z,20.80
2022-12-15T19:03:58.556Z,22.05
2022-12-15T19:16:03.079Z,20.08
2022-12-15T19:18:53.048Z,20.48
2022-12-15T19:21:54.649Z,22.55
2022-12-15T19:24:46.761Z,19.55
2022-12-15T19:27:20.626Z,20.55
2022-12-15T19:29:50.499Z,21.38
2022-12-15T19:32:20.907Z,22.90
2022-12-15T19:34:48.005Z,23.30
2022-12-15T19:37:33.541Z,22.50
2022-12-15T19:40:03.519Z,19.63
2022-12-15T19:42:32.286Z,24.42
2022-12-15T19:44:59.976Z,21.10
2022-12-15T19:47:27.052Z,21.88
2022-12-15T19:49:55.114Z,19.90
2022-12-15T19:52:22.455Z,22.92
2022-12-15T19:54:50.128Z,21.00
2022-12-15T19:57:17.888Z,21.52
2022-12-15T19:59:45.101Z,20.60
2022-12-15T20:02:21.613Z,20.10
2022-12-15T20:04:48.875Z,20.33
2022-12-15T20:07:22.220Z,21.08
2022-12-15T20:09:49.208Z,19.17
2022-12-15T20:12:17.417Z,21.05
2022-12-15T20:14:45.322Z,20.83
2022-12-15T20:17:12.421Z,22.08
2022-12-15T20:19:44.266Z,20.02
2022-12-15T20:22:14.118Z,20.23
2022-12-15T20:24:41.337Z,21.10
2022-12-15T20:27:28.335Z,21.83
2022-12-15T20:29:55.515Z,19.80
2022-12-15T20:32:22.566Z,20.75
2022-12-15T20:34:52.067Z,21.60
2022-12-15T20:37:22.308Z,19.27
2022-12-15T20:39:53.959Z,22.63
2022-12-15T20:42:24.156Z,22.90
2022-12-15T20:44:51.249Z,20.45
2022-12-15T20:47:25.617Z,21.23
2022-12-15T20:49:53.127Z,19.30
2022-12-15T20:52:22.952Z,21.10
2022-12-15T20:54:50.759Z,20.13
2022-12-15T20:57:17.868Z,21.88
2022-12-15T20:59:45.014Z,20.77
2022-12-15T21:02:23.115Z,21.23
2022-12-15T21:04:54.892Z,20.77
2022-12-15T21:07:21.979Z,21.58
2022-12-15T21:09:49.057Z,20.58
2022-12-15T21:12:22.952Z,23.60
2022-12-15T21:14:50.125Z,21.45
2022-12-15T21:17:28.885Z,23.40
2022-12-15T21:19:55.996Z,20.73
2022-12-15T21:22:24.499Z,20.98
2022-12-15T21:24:58.240Z,20.23
2022-12-15T21:27:27.740Z,22.88
2022-12-15T21:29:57.766Z,22.85
2022-12-15T21:32:29.488Z,22.00
2022-12-15T21:34:56.551Z,20.88
2022-12-15T21:37:29.754Z,20.58
2022-12-15T21:40:03.978Z,21.00
2022-12-15T21:42:34.121Z,17.45
2022-12-15T21:45:01.204Z,20.52
2022-12-15T21:47:51.908Z,20.63
2022-12-15T21:50:19.476Z,20.58
2022-12-15T21:52:46.533Z,16.60
2022-12-15T21:55:20.911Z,19.13
2022-12-15T21:57:48.050Z,17.55
2022-12-15T22:00:17.397Z,17.60
2022-12-15T22:06:33.377Z,18.85
2022-12-15T22:09:19.063Z,18.02
2022-12-15T22:11:51.948Z,17.80
2022-12-15T22:14:58.380Z,19.85
2022-12-15T22:17:32.590Z,18.30
2022-12-15T22:20:04.469Z,17.10
2022-12-15T22:22:32.027Z,16.10
2022-12-15T22:24:59.266Z,15.40
2022-12-15T22:27:26.445Z,13.15
2022-12-15T22:29:53.591Z,14.65
2022-12-15T22:32:23.099Z,13.27
2022-12-15T22:34:54.590Z,14.23
2022-12-15T22:37:21.587Z,13.60
2022-12-15T22:39:50.824Z,13.82
2022-12-15T22:42:18.798Z,16.30
2022-12-15T22:44:53.389Z,17.42
2022-12-15T22:47:27.564Z,15.90
2022-12-15T22:49:57.310Z,17.92
2022-12-15T22:52:25.456Z,18.70
2022-12-15T22:54:57.013Z,19.80
2022-12-15T22:57:35.136Z,22.40
2022-12-15T23:00:07.575Z,20.65
2022-12-15T23:02:42.909Z,20.13
2022-12-15T23:05:22.615Z,18.25
2022-12-15T23:08:01.099Z,19.55
2022-12-15T23:10:49.919Z,15.48
2022-12-15T23:13:27.798Z,15.45
2022-12-15T23:16:25.455Z,14.45
2022-12-15T23:19:22.301Z,14.23
2022-12-15T23:21:52.484Z,15.25
2022-12-15T23:24:32.751Z,15.68
2022-12-15T23:27:08.656Z,12.90
2022-12-15T23:29:57.052Z,12.13
2022-12-15T23:32:42.361Z,12.18
2022-12-15T23:35:22.464Z,13.80
2022-12-15T23:38:15.120Z,13.82
2022-12-15T23:40:52.561Z,13.50
2022-12-15T23:43:28.094Z,15.02
2022-12-15T23:49:51.110Z,16.38
